createdAt,value
2019-02-28T00:00:02.988Z,48
2019-02-28T00:01:02.994Z,48
2019-02-28T00:02:03.025Z,48
2019-02-28T00:03:03.081Z,49
2019-02-28T00:04:03.108Z,50
2019-02-28T00:05:05.739Z,49
2019-02-28T00:06:03.186Z,49
2019-02-28T00:07:03.111Z,50
2019-02-28T00:08:03.143Z,50
2019-02-28T00:09:03.178Z,50
2019-02-28T00:10:03.205Z,51
2019-02-28T00:11:04.988Z,50
2019-02-28T00:12:03.215Z,51
2019-02-28T00:13:03.235Z,51
2019-02-28T00:14:03.271Z,51
2019-02-28T00:15:03.308Z,51
2019-02-28T00:16:04.003Z,50
2019-02-28T00:17:03.313Z,49
2019-02-28T00:18:03.726Z,48
2019-02-28T00:19:03.342Z,48
2019-02-28T00:20:03.360Z,46
2019-02-28T00:21:06.317Z,46
2019-02-28T00:22:03.402Z,45
2019-02-28T00:23:03.412Z,43
2019-02-28T00:24:03.418Z,43
2019-02-28T00:25:04.183Z,43
2019-02-28T00:26:03.470Z,42
2019-02-28T00:27:03.496Z,43
2019-02-28T00:28:03.518Z,42
2019-02-28T00:29:03.492Z,43
2019-02-28T00:30:05.942Z,42
2019-02-28T00:31:03.504Z,41
2019-02-28T00:32:03.487Z,41
2019-02-28T00:33:03.489Z,41
2019-02-28T00:34:05.322Z,40
2019-02-28T00:35:03.536Z,40
2019-02-28T00:36:03.530Z,40
2019-02-28T00:37:03.547Z,40
2019-02-28T00:38:03.517Z,39
2019-02-28T00:39:04.144Z,39
2019-02-28T00:40:06.564Z,39
2019-02-28T00:41:03.554Z,38
2019-02-28T00:42:03.580Z,38
2019-02-28T00:43:03.578Z,39
2019-02-28T00:44:04.442Z,38
2019-02-28T00:45:03.736Z,38
2019-02-28T00:46:03.659Z,38
2019-02-28T00:47:03.774Z,38
2019-02-28T00:48:04.244Z,38
2019-02-28T00:49:03.779Z,38
2019-02-28T00:50:03.833Z,38
2019-02-28T00:51:03.829Z,39
2019-02-28T00:52:03.881Z,38
2019-02-28T00:53:06.350Z,39
2019-02-28T00:54:03.932Z,38
2019-02-28T00:55:03.972Z,38
2019-02-28T00:56:03.998Z,38
2019-02-28T00:57:04.069Z,38
2019-02-28T00:58:04.069Z,38
2019-02-28T00:59:04.119Z,38
2019-02-28T01:00:05.373Z,37
2019-02-28T01:01:04.211Z,38
2019-02-28T01:02:04.265Z,36
2019-02-28T01:03:04.274Z,37
2019-02-28T01:04:04.318Z,37
2019-02-28T01:05:04.792Z,37
2019-02-28T01:06:09.495Z,38
2019-02-28T01:07:04.424Z,37
2019-02-28T01:08:04.442Z,37
2019-02-28T01:09:36.390Z,37
2019-02-28T01:10:05.190Z,37
2019-02-28T01:11:04.561Z,38
2019-02-28T01:12:04.617Z,37
2019-02-28T01:13:04.616Z,38
2019-02-28T01:14:04.652Z,36
2019-02-28T01:15:07.119Z,36
2019-02-28T01:16:04.689Z,37
2019-02-28T01:17:04.687Z,36
2019-02-28T01:18:04.746Z,37
2019-02-28T01:19:08.611Z,38
2019-02-28T01:20:04.847Z,37
2019-02-28T01:21:04.835Z,37
2019-02-28T01:22:04.916Z,37
2019-02-28T01:23:04.932Z,38
2019-02-28T01:24:04.901Z,37
2019-02-28T01:25:06.458Z,36
2019-02-28T01:26:04.969Z,36
2019-02-28T01:27:04.991Z,37
2019-02-28T01:28:05.020Z,36
2019-02-28T01:29:05.018Z,37
2019-02-28T01:30:06.587Z,36
2019-02-28T01:31:05.042Z,36
2019-02-28T01:32:05.080Z,35
2019-02-28T01:33:05.114Z,35
2019-02-28T01:34:05.259Z,36
2019-02-28T01:35:06.719Z,36
2019-02-28T01:36:05.189Z,35
2019-02-28T01:37:05.201Z,35
2019-02-28T01:38:05.263Z,35
2019-02-28T01:39:05.263Z,35
2019-02-28T01:40:05.399Z,35
2019-02-28T01:41:05.283Z,34
2019-02-28T01:42:05.276Z,35
2019-02-28T01:43:05.357Z,35
2019-02-28T01:44:05.342Z,35
2019-02-28T01:45:06.976Z,34
2019-02-28T01:46:05.371Z,35
2019-02-28T01:47:05.382Z,34
2019-02-28T01:48:05.400Z,34
2019-02-28T01:49:05.411Z,34
2019-02-28T01:50:05.465Z,34
2019-02-28T01:51:05.460Z,34
2019-02-28T01:52:09.537Z,34
2019-02-28T01:53:05.479Z,33
2019-02-28T01:54:05.490Z,33
2019-02-28T01:55:05.506Z,34
2019-02-28T01:56:05.551Z,35
2019-02-28T01:57:08.900Z,34
2019-02-28T01:58:05.555Z,35
2019-02-28T01:59:05.625Z,35
2019-02-28T02:00:05.645Z,34
2019-02-28T02:01:05.608Z,34
2019-02-28T02:02:06.617Z,35
2019-02-28T02:03:05.591Z,35
2019-02-28T02:04:05.646Z,34
2019-02-28T02:05:05.625Z,35
2019-02-28T02:06:05.627Z,34
2019-02-28T02:07:05.640Z,35
2019-02-28T02:08:07.220Z,35
2019-02-28T02:09:08.033Z,35
2019-02-28T02:10:05.714Z,35
2019-02-28T02:11:05.707Z,35
2019-02-28T02:12:05.692Z,35
2019-02-28T02:13:05.689Z,34
2019-02-28T02:14:07.403Z,34
2019-02-28T02:15:05.701Z,34
2019-02-28T02:16:06.757Z,33
2019-02-28T02:17:05.751Z,33
2019-02-28T02:18:06.279Z,33
2019-02-28T02:19:05.740Z,33
2019-02-28T02:20:05.817Z,34
2019-02-28T02:21:05.782Z,34
2019-02-28T02:22:08.993Z,34
2019-02-28T02:23:05.767Z,34
2019-02-28T02:24:05.751Z,34
2019-02-28T02:25:05.746Z,34
2019-02-28T02:26:08.338Z,34
2019-02-28T02:27:05.767Z,34
2019-02-28T02:28:05.797Z,34
2019-02-28T02:29:05.791Z,34
2019-02-28T02:30:13.257Z,33
2019-02-28T02:31:08.137Z,33
2019-02-28T02:32:05.929Z,33
2019-02-28T02:33:05.885Z,33
2019-02-28T02:34:05.864Z,34
2019-02-28T02:35:07.782Z,34
2019-02-28T02:36:05.910Z,34
2019-02-28T02:37:05.888Z,34
2019-02-28T02:38:05.895Z,33
2019-02-28T02:39:05.910Z,33
2019-02-28T02:40:05.916Z,32
2019-02-28T02:41:05.937Z,33
2019-02-28T02:42:09.707Z,33
2019-02-28T02:43:05.971Z,33
2019-02-28T02:44:06.048Z,33
2019-02-28T02:45:06.655Z,33
2019-02-28T02:46:05.949Z,32
2019-02-28T02:47:05.996Z,32
2019-02-28T02:48:06.811Z,32
2019-02-28T02:49:06.006Z,32
2019-02-28T02:50:06.010Z,33
2019-02-28T02:51:10.531Z,33
2019-02-28T02:52:06.034Z,32
2019-02-28T02:53:06.574Z,32
2019-02-28T02:54:06.062Z,32
2019-02-28T02:55:06.073Z,32
2019-02-28T02:56:06.086Z,33
2019-02-28T02:57:06.085Z,32
2019-02-28T02:58:06.065Z,32
2019-02-28T02:59:06.071Z,31
2019-02-28T03:00:06.060Z,31
2019-02-28T03:01:06.115Z,32
2019-02-28T03:02:06.069Z,33
2019-02-28T03:03:07.603Z,32
2019-02-28T03:04:06.134Z,33
2019-02-28T03:05:06.116Z,33
2019-02-28T03:06:11.730Z,34
2019-02-28T03:07:06.147Z,33
2019-02-28T03:08:06.177Z,32
2019-02-28T03:09:09.853Z,34
2019-02-28T03:10:06.165Z,34
2019-02-28T03:11:06.217Z,33
2019-02-28T03:12:06.208Z,34
2019-02-28T03:13:06.573Z,34
2019-02-28T03:14:06.216Z,35
2019-02-28T03:15:06.240Z,35
2019-02-28T03:16:06.241Z,35
2019-02-28T03:17:11.389Z,36
2019-02-28T03:18:06.278Z,36
2019-02-28T03:19:06.313Z,36
2019-02-28T03:20:07.658Z,37
2019-02-28T03:21:06.317Z,38
2019-02-28T03:22:06.357Z,37
2019-02-28T03:23:06.339Z,37
2019-02-28T03:24:06.321Z,38
2019-02-28T03:25:06.323Z,38
2019-02-28T03:26:07.189Z,39
2019-02-28T03:27:06.331Z,39
2019-02-28T03:28:06.371Z,39
2019-02-28T03:29:07.818Z,39
2019-02-28T03:30:06.360Z,40
2019-02-28T03:31:14.014Z,40
2019-02-28T03:32:06.405Z,41
2019-02-28T03:33:06.428Z,41
2019-02-28T03:34:12.686Z,41
2019-02-28T03:35:06.407Z,42
2019-02-28T03:36:06.376Z,42
2019-02-28T03:37:06.457Z,42
2019-02-28T03:38:10.166Z,43
2019-02-28T03:39:06.516Z,43
2019-02-28T03:40:06.495Z,43
2019-02-28T03:41:06.555Z,43
2019-02-28T03:42:06.600Z,43
2019-02-28T03:43:06.983Z,44
2019-02-28T03:44:06.735Z,44
2019-02-28T03:45:06.705Z,44
2019-02-28T03:46:10.116Z,44
2019-02-28T03:47:06.755Z,44
2019-02-28T03:48:06.847Z,44
2019-02-28T03:49:10.839Z,44
2019-02-28T03:50:06.878Z,44
2019-02-28T03:51:06.848Z,44
2019-02-28T03:52:06.984Z,44
2019-02-28T03:53:06.969Z,44
2019-02-28T03:54:06.961Z,44
2019-02-28T03:55:06.998Z,45
2019-02-28T03:56:07.052Z,45
2019-02-28T03:57:07.026Z,45
2019-02-28T03:58:07.054Z,45
2019-02-28T03:59:07.090Z,45
2019-02-28T04:00:07.101Z,45
2019-02-28T04:01:09.287Z,46
2019-02-28T04:02:07.195Z,46
2019-02-28T04:03:07.174Z,46
2019-02-28T04:04:12.098Z,47
2019-02-28T04:05:07.243Z,46
2019-02-28T04:06:07.248Z,46
2019-02-28T04:07:07.332Z,46
2019-02-28T04:08:07.298Z,47
2019-02-28T04:09:08.975Z,47
2019-02-28T04:10:07.364Z,47
2019-02-28T04:11:07.412Z,47
2019-02-28T04:12:08.966Z,47
2019-02-28T04:13:07.433Z,48
2019-02-28T04:14:07.464Z,48
2019-02-28T04:15:10.017Z,48
2019-02-28T04:16:09.345Z,47
2019-02-28T04:17:07.517Z,48
2019-02-28T04:18:08.538Z,48
2019-02-28T04:19:07.551Z,48
2019-02-28T04:20:07.611Z,48
2019-02-28T04:21:10.125Z,48
2019-02-28T04:22:07.661Z,48
2019-02-28T04:23:07.622Z,48
2019-02-28T04:24:12.361Z,49
2019-02-28T04:25:07.686Z,49
2019-02-28T04:26:07.651Z,49
2019-02-28T04:27:07.898Z,49
2019-02-28T04:28:07.715Z,49
2019-02-28T04:29:07.750Z,49
2019-02-28T04:30:09.747Z,50
2019-02-28T04:31:07.761Z,49
2019-02-28T04:32:07.750Z,49
2019-02-28T04:33:07.760Z,50
2019-02-28T04:34:12.871Z,50
2019-02-28T04:35:07.780Z,50
2019-02-28T04:36:07.761Z,50
2019-02-28T04:37:09.510Z,50
2019-02-28T04:38:07.820Z,50
2019-02-28T04:39:07.851Z,51
2019-02-28T04:40:07.820Z,51
2019-02-28T04:41:07.840Z,51
2019-02-28T04:41:54.502Z,51
2019-02-28T04:42:54.557Z,51
2019-02-28T04:43:10.046Z,51
2019-02-28T04:43:36.147Z,51
2019-02-28T04:44:02.069Z,51
2019-02-28T04:45:02.077Z,51
2019-02-28T04:45:18.703Z,51
2019-02-28T04:45:42.271Z,51
2019-02-28T04:46:42.305Z,51
2019-02-28T04:47:42.307Z,51
2019-02-28T04:48:42.393Z,51
2019-02-28T04:49:42.426Z,51
2019-02-28T04:50:42.443Z,51
2019-02-28T04:51:42.480Z,50
2019-02-28T04:52:47.053Z,50
2019-02-28T04:53:42.549Z,51
2019-02-28T04:54:42.608Z,50
2019-02-28T04:55:42.633Z,50
2019-02-28T04:56:45.468Z,50
2019-02-28T04:57:42.730Z,50
2019-02-28T04:58:42.742Z,48
2019-02-28T04:59:42.795Z,48
2019-02-28T05:00:42.803Z,47
2019-02-28T05:01:45.176Z,46
2019-02-28T05:02:42.871Z,46
2019-02-28T05:03:42.919Z,46
2019-02-28T05:04:42.988Z,46
2019-02-28T05:05:46.350Z,45
2019-02-28T05:06:42.986Z,45
2019-02-28T05:07:43.029Z,45
2019-02-28T05:08:43.031Z,44
2019-02-28T05:09:45.198Z,44
2019-02-28T05:10:43.081Z,44
2019-02-28T05:11:43.158Z,43
2019-02-28T05:12:43.154Z,44
2019-02-28T05:13:48.165Z,43
2019-02-28T05:14:43.185Z,43
2019-02-28T05:15:43.204Z,43
2019-02-28T05:16:46.851Z,43
2019-02-28T05:17:43.290Z,43
2019-02-28T05:18:43.304Z,44
2019-02-28T05:19:43.320Z,44
2019-02-28T05:20:46.081Z,44
2019-02-28T05:21:43.375Z,44
2019-02-28T05:22:43.397Z,44
2019-02-28T05:23:43.378Z,44
2019-02-28T05:24:43.707Z,43
2019-02-28T05:25:43.458Z,44
2019-02-28T05:26:43.469Z,44
2019-02-28T05:27:43.505Z,44
2019-02-28T05:28:43.522Z,43
2019-02-28T05:29:44.584Z,44
2019-02-28T05:30:43.571Z,43
2019-02-28T05:31:43.561Z,42
2019-02-28T05:32:43.598Z,43
2019-02-28T05:33:43.645Z,43
2019-02-28T05:34:43.668Z,42
2019-02-28T05:35:43.672Z,42
2019-02-28T05:36:43.674Z,42
2019-02-28T05:37:47.290Z,42
2019-02-28T05:38:43.738Z,42
2019-02-28T05:39:43.807Z,42
2019-02-28T05:40:43.765Z,42
2019-02-28T05:41:48.911Z,42
2019-02-28T05:42:43.789Z,42
2019-02-28T05:43:43.833Z,42
2019-02-28T05:44:43.813Z,42
2019-02-28T05:45:48.509Z,42
2019-02-28T05:46:43.813Z,40
2019-02-28T05:47:46.528Z,41
2019-02-28T05:48:43.839Z,41
2019-02-28T05:49:43.857Z,41
2019-02-28T05:50:43.860Z,40
2019-02-28T05:51:43.875Z,41
2019-02-28T05:52:43.926Z,40
2019-02-28T05:53:46.092Z,40
2019-02-28T05:54:43.885Z,40
2019-02-28T05:55:43.938Z,39
2019-02-28T05:56:43.866Z,39
2019-02-28T05:57:44.840Z,39
2019-02-28T05:58:43.900Z,39
2019-02-28T05:59:43.922Z,39
2019-02-28T06:00:43.962Z,39
2019-02-28T06:01:46.888Z,39
2019-02-28T06:02:43.931Z,39
2019-02-28T06:03:43.946Z,38
2019-02-28T06:04:43.928Z,38
2019-02-28T06:05:46.311Z,38
2019-02-28T06:06:44.051Z,39
2019-02-28T06:07:43.937Z,39
2019-02-28T06:08:43.946Z,38
2019-02-28T06:09:45.512Z,39
2019-02-28T06:10:44.010Z,38
2019-02-28T06:11:44.036Z,38
2019-02-28T06:12:44.848Z,38
2019-02-28T06:13:44.094Z,38
2019-02-28T06:14:44.137Z,38
2019-02-28T06:15:44.199Z,38
2019-02-28T06:16:46.702Z,38
2019-02-28T06:17:44.274Z,38
2019-02-28T06:18:44.311Z,38
2019-02-28T06:19:44.403Z,38
2019-02-28T06:20:44.667Z,38
2019-02-28T06:21:44.381Z,37
2019-02-28T06:22:44.449Z,38
2019-02-28T06:23:44.501Z,38
2019-02-28T06:24:44.998Z,38
2019-02-28T06:25:44.565Z,38
2019-02-28T06:26:44.615Z,38
2019-02-28T06:27:48.887Z,38
2019-02-28T06:28:44.839Z,38
2019-02-28T06:29:44.676Z,38
2019-02-28T06:30:44.759Z,38
2019-02-28T06:31:45.383Z,38
2019-02-28T06:32:44.743Z,38
2019-02-28T06:33:44.787Z,38
2019-02-28T06:34:44.831Z,39
2019-02-28T06:35:44.919Z,38
2019-02-28T06:36:44.900Z,39
2019-02-28T06:37:44.923Z,38
2019-02-28T06:38:44.977Z,39
2019-02-28T06:39:45.106Z,39
2019-02-28T06:40:45.041Z,39
2019-02-28T06:41:45.044Z,38
2019-02-28T06:42:46.629Z,39
2019-02-28T06:43:45.129Z,39
2019-02-28T06:44:45.139Z,39
2019-02-28T06:45:45.205Z,39
2019-02-28T06:46:45.192Z,40
2019-02-28T06:47:47.887Z,40
2019-02-28T06:48:45.275Z,39
2019-02-28T06:49:45.346Z,39
2019-02-28T06:50:45.578Z,40
2019-02-28T06:51:45.318Z,40
2019-02-28T06:52:45.379Z,40
2019-02-28T06:53:45.362Z,40
2019-02-28T06:54:45.409Z,40
2019-02-28T06:55:46.401Z,40
2019-02-28T06:56:45.444Z,40
2019-02-28T06:57:45.454Z,40
2019-02-28T06:58:45.486Z,40
2019-02-28T06:59:45.529Z,41
2019-02-28T07:00:48.424Z,40
2019-02-28T07:01:45.541Z,41
2019-02-28T07:02:45.595Z,41
2019-02-28T07:03:53.215Z,41
2019-02-28T07:04:49.430Z,41
2019-02-28T07:05:45.819Z,41
2019-02-28T07:06:45.745Z,41
2019-02-28T07:07:48.943Z,41
2019-02-28T07:08:45.864Z,41
2019-02-28T07:09:45.727Z,41
2019-02-28T07:10:48.362Z,41
2019-02-28T07:11:45.729Z,41
2019-02-28T07:12:45.789Z,41
2019-02-28T07:13:45.771Z,42
2019-02-28T07:14:49.197Z,42
2019-02-28T07:15:45.795Z,42
2019-02-28T07:16:45.817Z,41
2019-02-28T07:17:47.356Z,41
2019-02-28T07:18:45.845Z,42
2019-02-28T07:19:46.107Z,41
2019-02-28T07:20:47.179Z,42
2019-02-28T07:22:01.413Z,41
2019-02-28T07:22:46.024Z,41
2019-02-28T07:23:45.909Z,41
2019-02-28T07:24:45.886Z,41
2019-02-28T07:25:47.324Z,41
2019-02-28T07:26:45.936Z,41
2019-02-28T07:27:45.960Z,41
2019-02-28T07:28:45.942Z,41
2019-02-28T07:29:48.638Z,42
2019-02-28T07:30:45.942Z,42
2019-02-28T07:31:46.110Z,41
2019-02-28T07:32:46.010Z,41
2019-02-28T07:33:45.982Z,41
2019-02-28T07:34:45.969Z,41
2019-02-28T07:35:45.972Z,40
2019-02-28T07:36:45.987Z,40
2019-02-28T07:37:45.992Z,40
2019-02-28T07:38:45.961Z,40
2019-02-28T07:39:45.979Z,40
2019-02-28T07:40:49.384Z,40
2019-02-28T07:41:48.201Z,40
2019-02-28T07:42:46.032Z,40
2019-02-28T07:43:46.919Z,40
2019-02-28T07:44:46.046Z,40
2019-02-28T07:45:46.142Z,40
2019-02-28T07:46:46.102Z,40
2019-02-28T07:47:51.388Z,40
2019-02-28T07:48:46.192Z,40
2019-02-28T07:49:46.223Z,40
2019-02-28T07:50:46.632Z,40
2019-02-28T07:51:46.240Z,40
2019-02-28T07:52:46.251Z,40
2019-02-28T07:53:46.281Z,40
2019-02-28T07:54:47.380Z,40
2019-02-28T07:55:46.293Z,40
2019-02-28T07:56:46.300Z,40
2019-02-28T07:57:50.921Z,41
2019-02-28T07:58:46.382Z,40
2019-02-28T07:59:46.381Z,40
2019-02-28T08:00:48.399Z,40
2019-02-28T08:01:46.461Z,40
2019-02-28T08:02:46.450Z,39
2019-02-28T08:03:46.488Z,40
2019-02-28T08:04:46.650Z,40
2019-02-28T08:05:46.515Z,40
2019-02-28T08:06:46.538Z,40
2019-02-28T08:07:51.773Z,40
2019-02-28T08:08:46.677Z,40
2019-02-28T08:09:46.593Z,40
2019-02-28T08:10:47.907Z,40
2019-02-28T08:11:46.591Z,40
2019-02-28T08:12:46.601Z,40
2019-02-28T08:13:46.639Z,40
2019-02-28T08:14:47.005Z,40
2019-02-28T08:15:46.775Z,41
2019-02-28T08:16:46.669Z,40
2019-02-28T08:17:46.769Z,40
2019-02-28T08:18:46.715Z,40
2019-02-28T08:19:46.746Z,40
2019-02-28T08:20:46.806Z,40
2019-02-28T08:21:49.464Z,40
2019-02-28T08:22:46.795Z,40
2019-02-28T08:23:46.856Z,40
2019-02-28T08:24:46.823Z,41
2019-02-28T08:25:46.889Z,40
2019-02-28T08:26:46.884Z,40
2019-02-28T08:27:46.918Z,40
2019-02-28T08:28:46.928Z,40
2019-02-28T08:29:46.997Z,40
2019-02-28T08:30:47.411Z,40
2019-02-28T08:31:47.015Z,40
2019-02-28T08:32:47.281Z,40
2019-02-28T08:33:48.031Z,40
2019-02-28T08:34:47.028Z,40
2019-02-28T08:35:47.022Z,40
2019-02-28T08:36:47.557Z,40
2019-02-28T08:37:47.049Z,40
2019-02-28T08:38:47.213Z,40
2019-02-28T08:39:47.091Z,41
2019-02-28T08:40:50.261Z,40
2019-02-28T08:41:47.155Z,40
2019-02-28T08:42:47.205Z,41
2019-02-28T08:43:47.743Z,40
2019-02-28T08:44:47.152Z,40
2019-02-28T08:45:47.170Z,41
2019-02-28T08:46:47.292Z,41
2019-02-28T08:47:47.177Z,42
2019-02-28T08:48:47.194Z,41
2019-02-28T08:49:47.192Z,40
2019-02-28T08:50:47.185Z,40
2019-02-28T08:51:47.273Z,41
2019-02-28T08:52:48.343Z,41
2019-02-28T08:53:50.679Z,40
2019-02-28T08:54:47.205Z,40
2019-02-28T08:55:47.246Z,40
2019-02-28T08:56:49.518Z,40
2019-02-28T08:57:54.338Z,40
2019-02-28T08:58:47.257Z,40
2019-02-28T08:59:47.269Z,39
2019-02-28T09:00:47.328Z,39
2019-02-28T09:01:47.233Z,39
2019-02-28T09:02:52.113Z,39
2019-02-28T09:03:47.249Z,40
2019-02-28T09:04:47.547Z,40
2019-02-28T09:05:47.262Z,40
2019-02-28T09:06:47.330Z,40
2019-02-28T09:07:50.699Z,40
2019-02-28T09:08:47.299Z,40
2019-02-28T09:09:47.324Z,40
2019-02-28T09:10:47.875Z,40
2019-02-28T09:11:47.292Z,40
2019-02-28T09:12:47.334Z,40
2019-02-28T09:13:47.375Z,41
2019-02-28T09:14:47.371Z,40
2019-02-28T09:15:47.414Z,40
2019-02-28T09:16:47.462Z,40
2019-02-28T09:17:47.484Z,40
2019-02-28T09:18:47.517Z,40
2019-02-28T09:19:47.580Z,40
2019-02-28T09:20:47.580Z,40
2019-02-28T09:21:49.312Z,40
2019-02-28T09:22:47.663Z,40
2019-02-28T09:23:47.694Z,40
2019-02-28T09:24:47.717Z,40
2019-02-28T09:25:47.771Z,39
2019-02-28T09:26:47.802Z,39
2019-02-28T09:27:47.827Z,39
2019-02-28T09:28:48.284Z,39
2019-02-28T09:29:47.837Z,39
2019-02-28T09:30:47.891Z,39
2019-02-28T09:31:47.923Z,39
2019-02-28T09:32:48.139Z,39
2019-02-28T09:33:47.980Z,39
2019-02-28T09:34:48.037Z,39
2019-02-28T09:35:48.009Z,38
2019-02-28T09:36:48.017Z,39
2019-02-28T09:37:48.039Z,39
2019-02-28T09:38:56.642Z,39
2019-02-28T09:39:48.076Z,39
2019-02-28T09:40:48.138Z,39
2019-02-28T09:41:48.161Z,38
2019-02-28T09:42:51.028Z,38
2019-02-28T09:43:48.205Z,38
2019-02-28T09:44:48.222Z,38
2019-02-28T09:45:48.262Z,38
2019-02-28T09:46:50.668Z,38
2019-02-28T09:47:48.420Z,38
2019-02-28T09:48:48.366Z,39
2019-02-28T09:49:48.298Z,39
2019-02-28T09:50:48.350Z,38
2019-02-28T09:51:48.375Z,38
2019-02-28T09:52:48.363Z,39
2019-02-28T09:53:50.225Z,39
2019-02-28T09:54:48.435Z,38
2019-02-28T09:55:48.530Z,37
2019-02-28T09:56:48.401Z,38
2019-02-28T09:57:53.160Z,38
2019-02-28T09:58:49.546Z,38
2019-02-28T09:59:48.456Z,38
2019-02-28T10:00:50.371Z,38
2019-02-28T10:01:48.493Z,38
2019-02-28T10:02:48.536Z,38
2019-02-28T10:03:48.527Z,38
2019-02-28T10:04:48.538Z,37
2019-02-28T10:05:48.537Z,37
2019-02-28T10:06:51.473Z,37
2019-02-28T10:07:48.635Z,37
2019-02-28T10:08:48.539Z,37
2019-02-28T10:09:49.262Z,37
2019-02-28T10:10:48.707Z,38
2019-02-28T10:11:48.617Z,37
2019-02-28T10:12:48.568Z,38
2019-02-28T10:13:49.440Z,38
2019-02-28T10:14:48.586Z,38
2019-02-28T10:15:48.579Z,38
2019-02-28T10:16:49.497Z,38
2019-02-28T10:17:48.575Z,39
2019-02-28T10:18:48.625Z,38
2019-02-28T10:19:49.136Z,39
2019-02-28T10:20:44.694Z,39
2019-02-28T10:21:44.642Z,38
2019-02-28T10:22:47.277Z,39
2019-02-28T10:23:44.738Z,41
2019-02-28T10:24:44.749Z,40
2019-02-28T10:25:44.763Z,38
2019-02-28T10:26:44.825Z,38
2019-02-28T10:27:44.881Z,39
2019-02-28T10:28:44.970Z,39
2019-02-28T10:29:44.935Z,38
2019-02-28T10:30:47.160Z,38
2019-02-28T10:31:45.027Z,39
2019-02-28T10:32:44.988Z,38
2019-02-28T10:33:45.050Z,38
2019-02-28T10:34:45.126Z,38
2019-02-28T10:35:45.164Z,38
2019-02-28T10:36:47.736Z,38
2019-02-28T10:37:45.191Z,38
2019-02-28T10:38:45.198Z,38
2019-02-28T10:39:45.210Z,38
2019-02-28T10:40:45.269Z,38
2019-02-28T10:41:45.381Z,38
2019-02-28T10:42:45.335Z,39
2019-02-28T10:43:49.330Z,38
2019-02-28T10:44:45.362Z,38
2019-02-28T10:45:46.059Z,38
2019-02-28T10:46:45.442Z,39
2019-02-28T10:47:45.470Z,38
2019-02-28T10:48:50.606Z,39
2019-02-28T10:49:45.521Z,37
2019-02-28T10:50:45.520Z,38
2019-02-28T10:51:49.514Z,38
2019-02-28T10:52:45.561Z,38
2019-02-28T10:53:45.675Z,38
2019-02-28T10:54:48.375Z,38
2019-02-28T10:55:45.675Z,38
2019-02-28T10:56:45.662Z,38
2019-02-28T10:57:45.713Z,38
2019-02-28T10:58:47.098Z,38
2019-02-28T10:59:46.236Z,38
2019-02-28T11:00:45.742Z,37
2019-02-28T11:01:45.786Z,37
2019-02-28T11:02:45.805Z,38
2019-02-28T11:03:45.814Z,38
2019-02-28T11:04:45.880Z,38
2019-02-28T11:05:45.856Z,39
2019-02-28T11:06:46.832Z,38
2019-02-28T11:07:46.208Z,38
2019-02-28T11:08:47.437Z,38
2019-02-28T11:09:45.954Z,38
2019-02-28T11:10:45.963Z,38
2019-02-28T11:11:46.263Z,37
2019-02-28T11:12:45.963Z,38
2019-02-28T11:13:45.991Z,37
2019-02-28T11:14:46.073Z,38
2019-02-28T11:15:48.250Z,38
2019-02-28T13:27:49.557Z,39
2019-02-28T13:28:48.283Z,39
2019-02-28T13:29:48.345Z,39
2019-02-28T13:30:49.941Z,39
2019-02-28T13:31:48.366Z,39
2019-02-28T13:32:48.440Z,39
2019-02-28T13:33:52.454Z,39
2019-02-28T13:34:48.389Z,39
2019-02-28T13:35:48.496Z,39
2019-02-28T13:36:48.627Z,39
2019-02-28T13:37:48.660Z,39
2019-02-28T13:38:49.473Z,39
2019-02-28T13:39:48.788Z,39
2019-02-28T13:40:48.884Z,39
2019-02-28T13:41:48.695Z,39
2019-02-28T13:42:48.772Z,40
2019-02-28T13:43:48.810Z,39
2019-02-28T13:44:48.900Z,40
2019-02-28T13:45:50.528Z,40
2019-02-28T13:46:49.049Z,40
2019-02-28T13:47:49.041Z,40
2019-02-28T13:48:50.435Z,40
2019-02-28T13:49:49.722Z,40
2019-02-28T13:50:49.035Z,41
2019-02-28T13:51:49.142Z,41
2019-02-28T13:52:52.065Z,40
2019-02-28T13:53:49.273Z,40
2019-02-28T13:54:49.137Z,40
2019-02-28T13:55:52.608Z,41
2019-02-28T13:56:49.242Z,41
2019-02-28T13:57:49.289Z,41
2019-02-28T13:58:49.266Z,41
2019-02-28T13:59:49.358Z,41
2019-02-28T14:00:49.284Z,42
2019-02-28T14:01:52.013Z,42
2019-02-28T14:02:49.335Z,42
2019-02-28T14:03:49.342Z,42
2019-02-28T14:04:49.380Z,42
2019-02-28T14:05:49.518Z,42
2019-02-28T14:06:52.346Z,42
2019-02-28T14:07:49.440Z,42
2019-02-28T14:08:49.452Z,43
2019-02-28T14:09:49.497Z,43
2019-02-28T14:10:49.504Z,43
2019-02-28T14:11:51.728Z,43
2019-02-28T14:12:52.998Z,43
2019-02-28T14:13:49.675Z,43
2019-02-28T14:14:49.561Z,44
2019-02-28T14:15:52.329Z,43
2019-02-28T14:16:49.638Z,43
2019-02-28T14:17:49.627Z,43
2019-02-28T14:18:49.677Z,43
2019-02-28T14:19:52.644Z,43
2019-02-28T14:20:49.702Z,43
2019-02-28T14:21:49.714Z,43
2019-02-28T14:22:49.709Z,43
2019-02-28T14:23:52.361Z,43
2019-02-28T14:24:49.747Z,43
2019-02-28T14:25:49.754Z,44
2019-02-28T14:26:50.443Z,43
2019-02-28T14:27:49.830Z,44
2019-02-28T14:28:49.801Z,43
2019-02-28T14:29:49.814Z,43
2019-02-28T14:30:49.786Z,43
2019-02-28T14:31:49.804Z,43
2019-02-28T14:32:49.888Z,43
2019-02-28T14:33:51.391Z,43
2019-02-28T14:34:49.913Z,43
2019-02-28T14:35:49.859Z,43
2019-02-28T14:36:49.869Z,43
2019-02-28T14:37:51.691Z,43
2019-02-28T14:38:49.904Z,44
2019-02-28T14:39:49.926Z,44
2019-02-28T14:40:52.730Z,43
2019-02-28T14:41:49.895Z,44
2019-02-28T14:42:49.906Z,44
2019-02-28T14:43:52.763Z,44
2019-02-28T14:44:49.942Z,43
2019-02-28T14:45:49.915Z,44
2019-02-28T14:46:53.075Z,44
2019-02-28T14:47:56.455Z,44
2019-02-28T14:48:49.947Z,44
2019-02-28T14:49:49.983Z,44
2019-02-28T14:50:50.482Z,44
2019-02-28T14:51:49.939Z,44
2019-02-28T14:52:50.024Z,44
2019-02-28T14:53:50.168Z,44
2019-02-28T14:54:50.067Z,44
2019-02-28T14:55:50.115Z,44
2019-02-28T14:56:50.144Z,44
2019-02-28T14:57:50.136Z,44
2019-02-28T14:58:50.160Z,44
2019-02-28T14:59:50.258Z,44
2019-02-28T15:00:50.254Z,44
2019-02-28T15:01:52.987Z,44
2019-02-28T15:02:50.779Z,44
2019-02-28T15:03:50.338Z,44
2019-02-28T15:04:50.349Z,45
2019-02-28T15:05:52.316Z,45
2019-02-28T15:06:50.408Z,45
2019-02-28T15:07:50.429Z,45
2019-02-28T15:08:51.836Z,45
2019-02-28T15:09:50.516Z,45
2019-02-28T15:10:50.633Z,45
2019-02-28T15:11:50.588Z,45
2019-02-28T15:12:50.578Z,45
2019-02-28T15:13:50.635Z,45
2019-02-28T15:14:51.210Z,45
2019-02-28T15:15:53.069Z,45
2019-02-28T15:16:50.699Z,45
2019-02-28T15:17:50.732Z,45
2019-02-28T15:18:51.178Z,45
2019-02-28T15:19:50.745Z,45
2019-02-28T15:20:50.792Z,46
2019-02-28T15:21:53.023Z,46
2019-02-28T15:22:52.359Z,46
2019-02-28T15:23:50.906Z,46
2019-02-28T15:24:50.863Z,46
2019-02-28T15:25:53.978Z,46
2019-02-28T15:26:50.907Z,46
2019-02-28T15:27:50.955Z,46
2019-02-28T15:28:50.927Z,46
2019-02-28T15:29:50.978Z,46
2019-02-28T15:30:51.128Z,46
2019-02-28T15:31:51.040Z,46
2019-02-28T15:32:54.174Z,47
2019-02-28T15:33:52.732Z,47
2019-02-28T15:34:51.125Z,46
2019-02-28T15:35:51.121Z,47
2019-02-28T15:36:51.084Z,47
2019-02-28T15:37:51.159Z,47
2019-02-28T15:38:51.150Z,47
2019-02-28T15:39:51.162Z,46
2019-02-28T15:40:51.222Z,47
2019-02-28T15:41:51.249Z,47
2019-02-28T15:42:51.294Z,46
2019-02-28T15:43:53.460Z,46
2019-02-28T15:44:51.258Z,46
2019-02-28T15:45:51.298Z,46
2019-02-28T15:46:51.318Z,46
2019-02-28T15:47:51.363Z,46
2019-02-28T15:48:51.397Z,46
2019-02-28T15:49:51.430Z,46
2019-02-28T15:50:52.502Z,46
2019-02-28T15:51:51.430Z,46
2019-02-28T15:52:51.408Z,46
2019-02-28T15:53:51.673Z,46
2019-02-28T15:54:51.611Z,46
2019-02-28T15:55:51.475Z,46
2019-02-28T15:56:51.760Z,46
2019-02-28T15:57:51.486Z,46
2019-02-28T15:58:51.582Z,46
2019-02-28T15:59:51.515Z,46
2019-02-28T16:00:53.628Z,46
2019-02-28T16:01:51.524Z,47
2019-02-28T16:02:51.599Z,47
2019-02-28T16:03:52.512Z,46
2019-02-28T16:04:51.572Z,47
2019-02-28T16:05:51.583Z,46
2019-02-28T16:06:56.348Z,47
2019-02-28T16:07:51.655Z,47
2019-02-28T16:08:51.587Z,46
2019-02-28T16:09:54.055Z,46
2019-02-28T16:10:53.474Z,46
2019-02-28T16:11:51.643Z,47
2019-02-28T16:12:51.658Z,47
2019-02-28T16:13:51.682Z,47
2019-02-28T16:14:51.683Z,47
2019-02-28T16:15:51.631Z,47
2019-02-28T16:16:51.649Z,47
2019-02-28T16:17:51.658Z,47
2019-02-28T16:18:51.658Z,47
2019-02-28T16:19:53.161Z,47
2019-02-28T16:20:51.689Z,47
2019-02-28T16:21:51.655Z,47
2019-02-28T16:22:52.987Z,47